Arthur Maersk — OXJH2 — position and weather

sailwx.info

Track history (hours):
 
Tides and Currents Weather Stations Pressure Air Temp Water Temp Dewpoint Dewpoint Depression Visibility Wind Speed Wind Dir Waves Ship Positions

Arthur Maersk

Last reported at 2017-Jul-23 10:30 UTC. Time now 2017-Jul-23 10:52 UTC.
Position N 31°58' W 080°24'.

Length 352 m; draft 10.2 m.

Type: Cargo ship. MMSI: 220221000.

Date/timePositionNaut miles runAvg speedWind from/ knotsBaromVisibWave heightAir tempDewpointWater temp
2017-Jul-23 10:30N 31°58' W 080°24'3 5.7
2017-Jul-23 09:59N 31°58' W 080°21'5 9.5
2017-Jul-23 09:30N 31°59' W 080°15'5 9.8
2017-Jul-23 09:00N 32°01' W 080°10'5 9.6
2017-Jul-23 08:30N 32°03' W 080°05'2210.0
2017-Jul-23 06:18N 32°17' W 079°45'310.0
2017-Jul-23 05:57N 32°19' W 079°41'5 9.7
2017-Jul-23 05:23N 32°24' W 079°38'610.3
2017-Jul-23 04:49N 32°30' W 079°37'26 1.5
2017-Jul-22 11:20N 32°40' W 079°09'29910.2
2017-Jul-21 05:59N 36°51' W 075°50'815.9
2017-Jul-21 05:30N 36°56' W 075°58'714.1
2017-Jul-21 05:00N 36°58' W 076°06'713.0
2017-Jul-21 04:29N 37°00' W 076°14'611.7
2017-Jul-21 04:00N 36°58' W 076°20'5 9.4
2017-Jul-21 03:31N 36°53' W 076°20'1 1.9
2017-Jul-21 03:00N 36°52' W 076°21'0 0.0
2017-Jul-21 02:30N 36°52' W 076°21'0 0.0
2017-Jul-21 02:00N 36°52' W 076°21'0 0.0
2017-Jul-21 01:30N 36°52' W 076°21'0 0.0
2017-Jul-21 01:00N 36°52' W 076°21'0 0.0
2017-Jul-21 00:30N 36°52' W 076°21'0 0.0
2017-Jul-21 00:00N 36°52' W 076°21'0 0.0
2017-Jul-20 23:30N 36°52' W 076°21'0 0.0
2017-Jul-20 23:00N 36°52' W 076°21'0 0.0
2017-Jul-20 22:30N 36°52' W 076°21'0 0.0
2017-Jul-20 22:00N 36°52' W 076°21'0 0.0
2017-Jul-20 21:27N 36°52' W 076°21'0 0.0
2017-Jul-20 20:54N 36°52' W 076°21'0 0.0
2017-Jul-20 20:30N 36°52' W 076°21'0 0.0
2017-Jul-20 20:00N 36°52' W 076°21'0 0.0
2017-Jul-20 19:27N 36°52' W 076°21'0 0.0
2017-Jul-20 18:51N 36°52' W 076°21'0 0.0
2017-Jul-20 18:30N 36°52' W 076°21'0 0.0
2017-Jul-20 17:57N 36°52' W 076°21'0 0.0
2017-Jul-20 17:27N 36°52' W 076°21'0 0.0
2017-Jul-20 16:57N 36°52' W 076°21'0 0.0
2017-Jul-20 16:30N 36°52' W 076°21'0 0.0
2017-Jul-20 15:51N 36°52' W 076°21'0 0.0
2017-Jul-20 15:30N 36°52' W 076°21'0 0.0
2017-Jul-20 14:57N 36°52' W 076°21'0 0.0
2017-Jul-20 13:51N 36°52' W 076°21'0 0.0
2017-Jul-20 13:30N 36°52' W 076°21'0 0.0
2017-Jul-20 13:00N 36°52' W 076°21'0 0.0
2017-Jul-20 12:27N 36°52' W 076°21'0 0.0
2017-Jul-20 12:00N 36°52' W 076°21'0 0.0
2017-Jul-20 11:30N 36°52' W 076°21'0 0.0
2017-Jul-20 11:00N 36°52' W 076°21'0 0.3
2017-Jul-20 10:30N 36°53' W 076°21'2 3.6
2017-Jul-20 10:00N 36°54' W 076°20'4 8.5
2017-Jul-20 09:31N 36°58' W 076°20'713.2
2017-Jul-20 09:01N 36°60' W 076°12'714.7
2017-Jul-20 08:31N 36°58' W 076°03'612.7
2017-Jul-20 08:00N 36°56' W 075°56'3 5.8
2017-Jul-20 07:30N 36°54' W 075°53'3 6.2
2017-Jul-20 07:00N 36°52' W 075°50'510.7
2017-Jul-20 06:30N 36°49' W 075°44'612.0
2017-Jul-20 06:00N 36°51' W 075°37'611.9
2017-Jul-20 05:30N 36°53' W 075°30'611.9
2017-Jul-20 05:00N 36°55' W 075°23'612.1
2017-Jul-20 04:29N 36°58' W 075°16'612.3
2017-Jul-20 04:00N 37°03' W 075°12'1412.3
2017-Jul-20 02:51N 37°16' W 075°04'812.3
2017-Jul-20 02:10N 37°23' W 074°60'212.3
2017-Jul-20 02:00N 37°25' W 074°58'5712.3
2017-Jul-19 21:25N 38°16' W 074°27'612.1
2017-Jul-19 20:57N 38°21' W 074°24'512.3
2017-Jul-19 20:30N 38°26' W 074°21'612.3
2017-Jul-19 19:59N 38°32' W 074°18'1312.2
2017-Jul-19 18:54N 38°44' W 074°10'1512.3
2017-Jul-19 17:41N 38°57' W 074°02'312.5
2017-Jul-19 17:28N 38°59' W 074°00'912.3
2017-Jul-19 16:45N 39°08' W 073°59'1412.4
2017-Jul-19 15:37N 39°22' W 073°56'112.3
2017-Jul-19 15:30N 39°23' W 073°56'612.3
2017-Jul-19 15:00N 39°30' W 073°55'612.1
2017-Jul-19 14:30N 39°36' W 073°54'612.1
2017-Jul-19 14:00N 39°42' W 073°52'612.2
2017-Jul-19 13:29N 39°48' W 073°51'612.2
2017-Jul-19 13:00N 39°54' W 073°51'612.5
2017-Jul-19 12:30N 39°60' W 073°50'612.5
2017-Jul-19 12:00N 40°06' W 073°50'712.5
2017-Jul-19 11:26N 40°13' W 073°50'712.4
2017-Jul-19 10:51N 40°20' W 073°49'512.1
2017-Jul-19 10:27N 40°25' W 073°49'4 8.9
2017-Jul-19 10:00N 40°28' W 073°52'815.3
2017-Jul-19 09:30N 40°32' W 074°01'713.1
2017-Jul-19 09:00N 40°38' W 074°03'3 6.8
2017-Jul-19 08:30N 40°39' W 074°08'2 3.4
2017-Jul-19 08:00N 40°40' W 074°08'1 1.5
2017-Jul-19 07:29N 40°41' W 074°09'0 0.0
2017-Jul-19 06:59N 40°41' W 074°09'0 0.0
2017-Jul-19 06:29N 40°41' W 074°09'0 0.0
2017-Jul-19 05:59N 40°41' W 074°09'0 0.0
2017-Jul-19 05:29N 40°41' W 074°09'0 0.0
2017-Jul-19 04:59N 40°41' W 074°09'0 0.0
2017-Jul-19 04:29N 40°41' W 074°09'0 0.0
2017-Jul-19 03:59N 40°41' W 074°09'0 0.0
2017-Jul-19 03:29N 40°41' W 074°09'0 0.0
2017-Jul-19 02:59N 40°41' W 074°09'0 0.0
2017-Jul-19 02:26N 40°41' W 074°09'0 0.0
2017-Jul-19 01:59N 40°41' W 074°09'0 0.0
2017-Jul-19 01:30N 40°41' W 074°09'0 0.0
2017-Jul-19 00:58N 40°41' W 074°09'0 0.0
2017-Jul-19 00:28N 40°41' W 074°09'0 0.0
2017-Jul-18 23:58N 40°41' W 074°09'0 0.0
2017-Jul-18 23:28N 40°41' W 074°09'0 0.0
2017-Jul-18 22:58N 40°41' W 074°09'0 0.0
2017-Jul-18 22:25N 40°41' W 074°09'0 0.0
2017-Jul-18 21:58N 40°41' W 074°09'0 0.0
2017-Jul-18 21:28N 40°41' W 074°09'0 0.0
2017-Jul-18 20:58N 40°41' W 074°09'0 0.0
2017-Jul-18 20:28N 40°41' W 074°09'0 0.0
2017-Jul-18 19:58N 40°41' W 074°09'0 0.0
2017-Jul-18 19:25N 40°41' W 074°09'0 0.0
2017-Jul-18 18:58N 40°41' W 074°09'0 0.0
2017-Jul-18 18:28N 40°41' W 074°09'0 0.0
2017-Jul-18 17:58N 40°41' W 074°09'0 0.0
2017-Jul-18 17:25N 40°41' W 074°09'0 0.0
2017-Jul-18 16:58N 40°41' W 074°09'0 0.0
2017-Jul-18 16:28N 40°41' W 074°09'0 0.0
2017-Jul-18 15:58N 40°41' W 074°09'0 0.0
2017-Jul-18 15:28N 40°41' W 074°09'0 0.0
2017-Jul-18 14:58N 40°41' W 074°09'0 0.0
2017-Jul-18 13:58N 40°41' W 074°09'0 0.0
2017-Jul-18 13:28N 40°41' W 074°09'0 0.0
2017-Jul-18 12:58N 40°41' W 074°09'0 0.0
2017-Jul-18 12:28N 40°41' W 074°09'0 0.0
2017-Jul-18 11:55N 40°41' W 074°09'0 0.0
2017-Jul-18 11:28N 40°41' W 074°09'0 0.0
2017-Jul-18 10:58N 40°41' W 074°09'0 0.0
2017-Jul-18 10:31N 40°41' W 074°09'1 2.6
2017-Jul-18 10:01N 40°40' W 074°09'2 3.0
2017-Jul-18 09:30N 40°39' W 074°07'2 4.9
2017-Jul-18 09:01N 40°39' W 074°04'3 6.4
2017-Jul-18 08:30N 40°36' W 074°02'4 8.6
2017-Jul-18 08:01N 40°32' W 074°01'4 8.8
2017-Jul-18 07:30N 40°30' W 073°55'511.1
2017-Jul-18 07:01N 40°27' W 073°49'3 6.7
2017-Jul-18 06:31N 40°27' W 073°44'4 6.9
2017-Jul-18 06:00N 40°28' W 073°40'4 7.2
2017-Jul-18 05:30N 40°28' W 073°35'4 7.2
2017-Jul-18 04:59N 40°28' W 073°30'3 7.2
2017-Jul-18 04:30N 40°28' W 073°26'3 7.0
2017-Jul-18 04:00N 40°28' W 073°21'4 7.2
2017-Jul-18 03:30N 40°28' W 073°16'4 7.4
2017-Jul-18 03:00N 40°28' W 073°11'5 7.4
2017-Jul-18 02:23N 40°28' W 073°05'12 7.3
2017-Jul-18 00:47N 40°27' W 072°50'3 7.2
2017-Jul-18 00:19N 40°27' W 072°46'  
Track history (hours):
 
Tides and Currents Weather Stations Pressure Air Temp Water Temp Dewpoint Dewpoint Depression Visibility Wind Speed Wind Dir Waves Ship Positions

Arthur Maersk

Last reported at 2017-Jul-23 10:30 UTC. Time now 2017-Jul-23 10:52 UTC.
Position N 31°58' W 080°24'.

Length 352 m; draft 10.2 m.

Type: Cargo ship. MMSI: 220221000.

Date/timePositionNaut miles runAvg speedWind from/ knotsBaromVisibWave heightAir tempDewpointWater temp
2017-Jul-23 10:30N 31°58' W 080°24'3 5.7
2017-Jul-23 09:59N 31°58' W 080°21'5 9.5
2017-Jul-23 09:30N 31°59' W 080°15'5 9.8
2017-Jul-23 09:00N 32°01' W 080°10'5 9.6
2017-Jul-23 08:30N 32°03' W 080°05'2210.0
2017-Jul-23 06:18N 32°17' W 079°45'310.0
2017-Jul-23 05:57N 32°19' W 079°41'5 9.7
2017-Jul-23 05:23N 32°24' W 079°38'610.3
2017-Jul-23 04:49N 32°30' W 079°37'26 1.5
2017-Jul-22 11:20N 32°40' W 079°09'29910.2
2017-Jul-21 05:59N 36°51' W 075°50'815.9
2017-Jul-21 05:30N 36°56' W 075°58'714.1
2017-Jul-21 05:00N 36°58' W 076°06'713.0
2017-Jul-21 04:29N 37°00' W 076°14'611.7
2017-Jul-21 04:00N 36°58' W 076°20'5 9.4
2017-Jul-21 03:31N 36°53' W 076°20'1 1.9
2017-Jul-21 03:00N 36°52' W 076°21'0 0.0
2017-Jul-21 02:30N 36°52' W 076°21'0 0.0
2017-Jul-21 02:00N 36°52' W 076°21'0 0.0
2017-Jul-21 01:30N 36°52' W 076°21'0 0.0
2017-Jul-21 01:00N 36°52' W 076°21'0 0.0
2017-Jul-21 00:30N 36°52' W 076°21'0 0.0
2017-Jul-21 00:00N 36°52' W 076°21'0 0.0
2017-Jul-20 23:30N 36°52' W 076°21'0 0.0
2017-Jul-20 23:00N 36°52' W 076°21'0 0.0
2017-Jul-20 22:30N 36°52' W 076°21'0 0.0
2017-Jul-20 22:00N 36°52' W 076°21'0 0.0
2017-Jul-20 21:27N 36°52' W 076°21'0 0.0
2017-Jul-20 20:54N 36°52' W 076°21'0 0.0
2017-Jul-20 20:30N 36°52' W 076°21'0 0.0
2017-Jul-20 20:00N 36°52' W 076°21'0 0.0
2017-Jul-20 19:27N 36°52' W 076°21'0 0.0
2017-Jul-20 18:51N 36°52' W 076°21'0 0.0
2017-Jul-20 18:30N 36°52' W 076°21'0 0.0
2017-Jul-20 17:57N 36°52' W 076°21'0 0.0
2017-Jul-20 17:27N 36°52' W 076°21'0 0.0
2017-Jul-20 16:57N 36°52' W 076°21'0 0.0
2017-Jul-20 16:30N 36°52' W 076°21'0 0.0
2017-Jul-20 15:51N 36°52' W 076°21'0 0.0
2017-Jul-20 15:30N 36°52' W 076°21'0 0.0
2017-Jul-20 14:57N 36°52' W 076°21'0 0.0
2017-Jul-20 13:51N 36°52' W 076°21'0 0.0
2017-Jul-20 13:30N 36°52' W 076°21'0 0.0
2017-Jul-20 13:00N 36°52' W 076°21'0 0.0
2017-Jul-20 12:27N 36°52' W 076°21'0 0.0
2017-Jul-20 12:00N 36°52' W 076°21'0 0.0
2017-Jul-20 11:30N 36°52' W 076°21'0 0.0
2017-Jul-20 11:00N 36°52' W 076°21'0 0.3
2017-Jul-20 10:30N 36°53' W 076°21'2 3.6
2017-Jul-20 10:00N 36°54' W 076°20'4 8.5
2017-Jul-20 09:31N 36°58' W 076°20'713.2
2017-Jul-20 09:01N 36°60' W 076°12'714.7
2017-Jul-20 08:31N 36°58' W 076°03'612.7
2017-Jul-20 08:00N 36°56' W 075°56'3 5.8
2017-Jul-20 07:30N 36°54' W 075°53'3 6.2
2017-Jul-20 07:00N 36°52' W 075°50'510.7
2017-Jul-20 06:30N 36°49' W 075°44'612.0
2017-Jul-20 06:00N 36°51' W 075°37'611.9
2017-Jul-20 05:30N 36°53' W 075°30'611.9
2017-Jul-20 05:00N 36°55' W 075°23'612.1
2017-Jul-20 04:29N 36°58' W 075°16'612.3
2017-Jul-20 04:00N 37°03' W 075°12'1412.3
2017-Jul-20 02:51N 37°16' W 075°04'812.3
2017-Jul-20 02:10N 37°23' W 074°60'212.3
2017-Jul-20 02:00N 37°25' W 074°58'5712.3
2017-Jul-19 21:25N 38°16' W 074°27'612.1
2017-Jul-19 20:57N 38°21' W 074°24'512.3
2017-Jul-19 20:30N 38°26' W 074°21'612.3
2017-Jul-19 19:59N 38°32' W 074°18'1312.2
2017-Jul-19 18:54N 38°44' W 074°10'1512.3
2017-Jul-19 17:41N 38°57' W 074°02'312.5
2017-Jul-19 17:28N 38°59' W 074°00'912.3
2017-Jul-19 16:45N 39°08' W 073°59'1412.4
2017-Jul-19 15:37N 39°22' W 073°56'112.3
2017-Jul-19 15:30N 39°23' W 073°56'612.3
2017-Jul-19 15:00N 39°30' W 073°55'612.1
2017-Jul-19 14:30N 39°36' W 073°54'612.1
2017-Jul-19 14:00N 39°42' W 073°52'612.2
2017-Jul-19 13:29N 39°48' W 073°51'612.2
2017-Jul-19 13:00N 39°54' W 073°51'612.5
2017-Jul-19 12:30N 39°60' W 073°50'612.5
2017-Jul-19 12:00N 40°06' W 073°50'712.5
2017-Jul-19 11:26N 40°13' W 073°50'712.4
2017-Jul-19 10:51N 40°20' W 073°49'512.1
2017-Jul-19 10:27N 40°25' W 073°49'4 8.9
2017-Jul-19 10:00N 40°28' W 073°52'815.3
2017-Jul-19 09:30N 40°32' W 074°01'713.1
2017-Jul-19 09:00N 40°38' W 074°03'3 6.8
2017-Jul-19 08:30N 40°39' W 074°08'2 3.4
2017-Jul-19 08:00N 40°40' W 074°08'1 1.5
2017-Jul-19 07:29N 40°41' W 074°09'0 0.0
2017-Jul-19 06:59N 40°41' W 074°09'0 0.0
2017-Jul-19 06:29N 40°41' W 074°09'0 0.0
2017-Jul-19 05:59N 40°41' W 074°09'0 0.0
2017-Jul-19 05:29N 40°41' W 074°09'0 0.0
2017-Jul-19 04:59N 40°41' W 074°09'0 0.0
2017-Jul-19 04:29N 40°41' W 074°09'0 0.0
2017-Jul-19 03:59N 40°41' W 074°09'0 0.0
2017-Jul-19 03:29N 40°41' W 074°09'0 0.0
2017-Jul-19 02:59N 40°41' W 074°09'0 0.0
2017-Jul-19 02:26N 40°41' W 074°09'0 0.0
2017-Jul-19 01:59N 40°41' W 074°09'0 0.0
2017-Jul-19 01:30N 40°41' W 074°09'0 0.0
2017-Jul-19 00:58N 40°41' W 074°09'0 0.0
2017-Jul-19 00:28N 40°41' W 074°09'0 0.0
2017-Jul-18 23:58N 40°41' W 074°09'0 0.0
2017-Jul-18 23:28N 40°41' W 074°09'0 0.0
2017-Jul-18 22:58N 40°41' W 074°09'0 0.0
2017-Jul-18 22:25N 40°41' W 074°09'0 0.0
2017-Jul-18 21:58N 40°41' W 074°09'0 0.0
2017-Jul-18 21:28N 40°41' W 074°09'0 0.0
2017-Jul-18 20:58N 40°41' W 074°09'0 0.0
2017-Jul-18 20:28N 40°41' W 074°09'0 0.0
2017-Jul-18 19:58N 40°41' W 074°09'0 0.0
2017-Jul-18 19:25N 40°41' W 074°09'0 0.0
2017-Jul-18 18:58N 40°41' W 074°09'0 0.0
2017-Jul-18 18:28N 40°41' W 074°09'0 0.0
2017-Jul-18 17:58N 40°41' W 074°09'0 0.0
2017-Jul-18 17:25N 40°41' W 074°09'0 0.0
2017-Jul-18 16:58N 40°41' W 074°09'0 0.0
2017-Jul-18 16:28N 40°41' W 074°09'0 0.0
2017-Jul-18 15:58N 40°41' W 074°09'0 0.0
2017-Jul-18 15:28N 40°41' W 074°09'0 0.0
2017-Jul-18 14:58N 40°41' W 074°09'0 0.0
2017-Jul-18 13:58N 40°41' W 074°09'0 0.0
2017-Jul-18 13:28N 40°41' W 074°09'0 0.0
2017-Jul-18 12:58N 40°41' W 074°09'0 0.0
2017-Jul-18 12:28N 40°41' W 074°09'0 0.0
2017-Jul-18 11:55N 40°41' W 074°09'0 0.0
2017-Jul-18 11:28N 40°41' W 074°09'0 0.0
2017-Jul-18 10:58N 40°41' W 074°09'0 0.0
2017-Jul-18 10:31N 40°41' W 074°09'1 2.6
2017-Jul-18 10:01N 40°40' W 074°09'2 3.0
2017-Jul-18 09:30N 40°39' W 074°07'2 4.9
2017-Jul-18 09:01N 40°39' W 074°04'3 6.4
2017-Jul-18 08:30N 40°36' W 074°02'4 8.6
2017-Jul-18 08:01N 40°32' W 074°01'4 8.8
2017-Jul-18 07:30N 40°30' W 073°55'511.1
2017-Jul-18 07:01N 40°27' W 073°49'3 6.7
2017-Jul-18 06:31N 40°27' W 073°44'4 6.9
2017-Jul-18 06:00N 40°28' W 073°40'4 7.2
2017-Jul-18 05:30N 40°28' W 073°35'4 7.2
2017-Jul-18 04:59N 40°28' W 073°30'3 7.2
2017-Jul-18 04:30N 40°28' W 073°26'3 7.0
2017-Jul-18 04:00N 40°28' W 073°21'4 7.2
2017-Jul-18 03:30N 40°28' W 073°16'4 7.4
2017-Jul-18 03:00N 40°28' W 073°11'5 7.4
2017-Jul-18 02:23N 40°28' W 073°05'12 7.3
2017-Jul-18 00:47N 40°27' W 072°50'3 7.2
2017-Jul-18 00:19N 40°27' W 072°46'  

Dump ship's entire track history